Marc Duran

Recruteur en chef - Almería
3 Févr 2028
Jeudi
Processus

Personnalité

Adaptabilité (19) Ambition (20) Controverse (14) Loyauté (13) Pression (8) Professionnalisme (5) Sportivité (16) Tempérament (5)

Profil

Style d'entraînement Démocratique
Diplôme National A
Détermination 6
Gestion des joueurs 13
Motivation 5
Discipline 7
Satisfaction professionnelle
100%
Fatigue
0%
Rôle Recruteur en chef
Salaire 67.1K p/s
Contrat 14.03.2030

Performance

Comportement Bon
Efficacité de l'entraînement
45%
Développement des joueurs
50%
Prévention des blessures
65%
Mise en place tactique
55%

Événements récents

A évalué un joueur maintenant
A participé à une réunion de recrutement maintenant
A participé à une réunion de recrutement maintenant
A recommandé une cible de transfert maintenant
A recommandé une cible de transfert maintenant
A évalué un joueur 7j
A observé un match 7j
A évalué un joueur 7j

Suivi en cours

88
Joueur Club Statut Capacité Confiance Observé Dernière observation Dernier vote
Bahmed Deuff FC Metz Actif 119 / 128 40% 1 31.01.2028 -
Thiago Martínez Defensa y Justicia Actif 99 / 115 40% 1 31.01.2028 -
Felipe Faúndez O'Higgins Actif 90 / 101 40% 2 29.01.2028 -
Yannick Geiger BK Hacken Actif 93 / 110 40% 2 29.01.2028 -
Jorge Salinas Racing Santander Actif 129 / 131 40% 4 28.01.2028 -
Izan Merino Málaga Actif 119 / 140 40% 4 28.01.2028 -
Zane Albarus Colchester United Actif 89 / 102 40% 1 27.01.2028 -
Matvey Bardachev Zenit Actif 100 / 109 40% 1 26.01.2028 -
Pape Cabral Monaco Actif 111 / 128 40% 1 25.01.2028 -
Jon Esenga IF Elfsborg Actif 80 / 103 40% 1 25.01.2028 -
Juanjo Nieto Castellón Actif 124 / 111 55% 1 24.01.2028 -
Andrija Bulatović RC Lens Actif 137 / 135 40% 3 20.01.2028 -
Celías Ingenthron Racing Club Actif 106 / 122 40% 2 19.01.2028 -
Jaydee Canvot Crystal Palace Actif 146 / 147 40% 2 19.01.2028 -
Nicolas Sport Recife Actif 111 / 111 40% 1 17.01.2028 -
Héctor Fort Real Sociedad Actif 134 / 144 40% 1 17.01.2028 -
Alexis Vossah Toulouse FC Actif 126 / 124 40% 2 11.01.2028 Plus d'infos
Jonathan Norbye Haugesund Actif 122 / 104 40% 1 11.01.2028 -
Finn Jeltsch VfB Stuttgart Actif 134 / 146 40% 1 09.01.2028 -
Agustín Obregón River Plate Actif 120 / 120 40% 2 08.01.2028 -
Mikkel Hope IK Start Actif 105 / 100 40% 1 08.01.2028 -
Rafael Vargas Cortulua Actif 98 / 107 40% 3 05.01.2028 -
Kauã Moraes Cruzeiro Actif 123 / 130 40% 1 05.01.2028 -
Mikel Gogorza Minnesota United FC Actif 117 / 130 67% 1 01.01.2028 Approuver
Artem Slesar Viborg Actif 108 / 113 66% 1 01.01.2028 Approuver
Tomáš Ladra Pumas UNAM Actif 123 / 123 67% 1 01.01.2028 Approuver
Zahir Ibarra Unión de Santa Fe Actif 95 / 113 40% 1 30.08.2027 -
Mattia Puzone Siracusa Actif 108 / 103 40% 1 19.08.2027 -
Godwin Oham Warri Wolves Actif 83 / 90 40% 2 09.08.2027 -
Juan Oviedo Gimnasia y Tiro Actif 105 / 88 40% 1 09.08.2027 -
Mbekezeli Mbokazi Chicago Fire Actif 114 / 122 40% 3 08.08.2027 -
Inti Borghetto Patronato Actif 92 / 92 40% 1 08.08.2027 -
Halam Loboa Osasuna Actif 119 / 124 40% 2 06.08.2027 -
Cristian Morales O'Higgins Actif 71 / 85 40% 1 01.08.2027 -
Enzo Cardozo Huracán Actif 124 / 112 40% 1 30.07.2027 -
Juan Giménez Athletic Bilbao Actif 129 / 128 40% 1 30.07.2027 -
Tiago Freitas Benfica Actif 102 / 118 40% 2 29.07.2027 -
Sascha Britschgi Fiorentina Actif 123 / 122 40% 1 24.07.2027 -
Joseph Jones Kryvbas Actif 115 / 101 40% 1 22.07.2027 -
Kaick FC Dallas Actif 123 / 113 40% 1 20.07.2027 -
Simone Kosijer Triestina Actif 112 / 103 40% 2 18.07.2027 -
Mohamed Bolivar Barranquilla Actif 109 / 86 40% 1 15.07.2027 -
Marius Courcoul Olympique de Marseille Actif 111 / 130 40% 3 14.07.2027 -
Lucas Camilo Puebla Actif 111 / 105 40% 1 13.07.2027 -
Vanja Dragojević Partizan Actif 121 / 115 40% 1 11.07.2027 -
Marco Oroná Antofagasta Actif 102 / 112 40% 2 09.07.2027 -
Arjan Malić Sturm Graz Actif 132 / 125 40% 2 08.07.2027 -
Martim Cunha Porto Actif 102 / 104 40% 2 05.07.2027 -
Ezra Mayers West Ham United Actif 115 / 129 40% 2 04.07.2027 -
Teo Rodríguez Pagano San Lorenzo Actif 96 / 123 40% 1 30.06.2027 -
Alessio Insignito Spezia Actif 109 / 101 40% 1 30.06.2027 -
Kazunari Kita Real Sociedad Actif 110 / 110 40% 1 29.06.2027 -
Facundo Balatti Penarol Actif 121 / 114 40% 3 28.06.2027 -
Joe Knight Stevenage Actif 98 / 109 40% 1 28.06.2027 -
Miguel Figueiredo Benfica Actif 109 / 118 40% 2 24.06.2027 -
Jose Rodriguez La Equidad Actif 84 / 99 40% 1 23.06.2027 -
Mattia Mannini Juve Stabia Actif 126 / 121 40% 1 22.06.2027 -
Louis Leroux FC Nantes Actif 130 / 129 40% 1 16.06.2027 -
Mats Egbring Heerenveen Actif 104 / 113 40% 1 16.06.2027 -
Wilmar Borja La Equidad Actif 118 / 117 40% 1 14.06.2027 -
Milan Roganović Partizan Actif 120 / 118 40% 1 10.06.2027 -
Manuel Lopez Valledupar Actif 109 / 105 40% 1 07.06.2027 -
Juan Bezerra Porto Actif 118 / 122 69% 1 01.06.2027 Approuver
Daniel Arteaga Pumas UNAM Actif 104 / 117 40% 3 31.01.2027 -
Gilberto Mora AC Milan Actif 124 / 131 40% 2 31.01.2027 -
Lander Astiazarán Real Sociedad Actif 106 / 116 67% 1 30.01.2027 Observer
Diego Gaitán Maipú Actif 101 / 111 40% 1 18.01.2027 -
Pedro Zenit Actif 143 / 133 40% 2 17.01.2027 -
Ignacio Perruzzi San Lorenzo Actif 111 / 129 40% 1 17.01.2027 -
Keny Arroyo Cruzeiro Actif 138 / 125 40% 1 13.01.2027 -
Sam Amo-Ameyaw RC Strasbourg Actif 127 / 124 40% 1 13.01.2027 -
Lovro Zvonarek Estrela da Amadora Actif 114 / 132 40% 1 12.01.2027 -
Edison Gruezo Queretaro Actif 93 / 119 40% 1 12.01.2027 -
Mfundo Vilakazi Kaizer Chiefs Actif 94 / 123 40% 2 11.01.2027 -
Tibe De Vlieger KAA Gent Actif 108 / 106 40% 1 08.01.2027 -
Joaquin Seys Club Brugge Actif 120 / 126 40% 1 08.01.2027 -
Pierre-Emerick Aubameyang Deportivo La Coruña Actif 131 / 140 48% 1 06.01.2027 -
Lucas Ferreira Shakhtar Actif 117 / 126 40% 1 04.01.2027 -
Kyriani Sabbe Club Brugge Actif 114 / 123 40% 1 01.01.2027 -
Bruno Centeno Deportivo Maldonado Actif 89 / 87 40% 1 30.08.2026 -
Tadeo Polli San Martín Actif 83 / 97 40% 1 30.08.2026 -
Juan Velázquez Belgrano Actif 112 / 130 40% 1 28.08.2026 -
Isaí Valladares Zamora Actif 109 / 96 40% 1 20.08.2026 -
Alejo Gelsomino Gimnasia La Plata Actif 119 / 110 40% 1 20.08.2026 -
Tobías Correa Uruguay Montevideo Actif 77 / 106 40% 1 07.08.2026 -
Matías Gómez Talleres Actif 97 / 130 40% 1 07.08.2026 -
Juan Fernándes Pinto Almagro Actif 108 / 102 40% 1 04.08.2026 -
Santiago Colidio Colón Actif 86 / 94 40% 1 03.08.2026 -